sensor_id;sensor_type;location;lat;lon;timestamp;pressure;altitude;pressure_sealevel;temperature;humidity
67738;BME280;54534;43.612;1.572;2022-08-03T00:01:29;98837.38;;;26.98;35.98
67738;BME280;54534;43.612;1.572;2022-08-03T00:03:54;98836.72;;;26.96;35.96
67738;BME280;54534;43.612;1.572;2022-08-03T00:06:20;98837.72;;;26.95;35.75
67738;BME280;54534;43.612;1.572;2022-08-03T00:08:45;98835.25;;;26.93;35.78
67738;BME280;54534;43.612;1.572;2022-08-03T00:11:11;98835.25;;;26.93;35.68
67738;BME280;54534;43.612;1.572;2022-08-03T00:13:36;98832.72;;;26.92;35.84
67738;BME280;54534;43.612;1.572;2022-08-03T00:16:02;98832.91;;;26.90;35.53
67738;BME280;54534;43.612;1.572;2022-08-03T00:18:27;98837.47;;;26.90;35.73
67738;BME280;54534;43.612;1.572;2022-08-03T00:20:52;98839.31;;;26.89;35.75
67738;BME280;54534;43.612;1.572;2022-08-03T00:23:18;98837.66;;;26.88;35.86
67738;BME280;54534;43.612;1.572;2022-08-03T00:25:43;98841.38;;;26.87;35.78
67738;BME280;54534;43.612;1.572;2022-08-03T00:28:09;98842.41;;;26.86;35.58
67738;BME280;54534;43.612;1.572;2022-08-03T00:30:34;98833.47;;;26.85;36.06
67738;BME280;54534;43.612;1.572;2022-08-03T00:33:00;98838.03;;;26.85;35.70
67738;BME280;54534;43.612;1.572;2022-08-03T00:35:27;98835.53;;;26.83;35.78
67738;BME280;54534;43.612;1.572;2022-08-03T00:37:52;98836.75;;;26.81;36.24
67738;BME280;54534;43.612;1.572;2022-08-03T00:40:18;98830.50;;;26.80;35.82
67738;BME280;54534;43.612;1.572;2022-08-03T00:42:57;98829.66;;;26.80;35.59
67738;BME280;54534;43.612;1.572;2022-08-03T00:45:25;98826.34;;;26.77;35.71
67738;BME280;54534;43.612;1.572;2022-08-03T00:47:51;98840.81;;;26.76;35.46
67738;BME280;54534;43.612;1.572;2022-08-03T00:50:18;98827.34;;;26.76;35.73
67738;BME280;54534;43.612;1.572;2022-08-03T00:52:44;98829.19;;;26.76;36.00
67738;BME280;54534;43.612;1.572;2022-08-03T00:55:11;98826.69;;;26.74;35.81
67738;BME280;54534;43.612;1.572;2022-08-03T00:57:38;98827.72;;;26.73;35.83
67738;BME280;54534;43.612;1.572;2022-08-03T01:00:06;98823.34;;;26.72;35.64
67738;BME280;54534;43.612;1.572;2022-08-03T01:02:32;98821.69;;;26.71;35.90
67738;BME280;54534;43.612;1.572;2022-08-03T01:04:58;98823.34;;;26.72;35.66
67738;BME280;54534;43.612;1.572;2022-08-03T01:07:50;98823.72;;;26.69;35.48
67738;BME280;54534;43.612;1.572;2022-08-03T01:10:50;98827.44;;;26.68;35.67
67738;BME280;54534;43.612;1.572;2022-08-03T01:13:28;98817.88;;;26.65;35.60
67738;BME280;54534;43.612;1.572;2022-08-03T01:16:00;98816.22;;;26.64;35.25
67738;BME280;54534;43.612;1.572;2022-08-03T01:21:03;98815.72;;;26.61;35.58
67738;BME280;54534;43.612;1.572;2022-08-03T01:23:38;98816.56;;;26.61;35.59
67738;BME280;54534;43.612;1.572;2022-08-03T01:31:25;98821.69;;;26.56;35.62
67738;BME280;54534;43.612;1.572;2022-08-03T01:33:57;98811.06;;;26.54;35.25
67738;BME280;54534;43.612;1.572;2022-08-03T01:36:31;98802.97;;;26.54;35.34
67738;BME280;54534;43.612;1.572;2022-08-03T01:39:00;98802.34;;;26.52;35.43
67738;BME280;54534;43.612;1.572;2022-08-03T01:41:41;98791.56;;;26.52;35.63
67738;BME280;54534;43.612;1.572;2022-08-03T01:44:10;98805.25;;;26.51;35.46
67738;BME280;54534;43.612;1.572;2022-08-03T01:46:37;98800.00;;;26.49;35.33
67738;BME280;54534;43.612;1.572;2022-08-03T01:49:07;98806.44;;;26.48;35.54
67738;BME280;54534;43.612;1.572;2022-08-03T01:51:36;98799.38;;;26.47;35.53
67738;BME280;54534;43.612;1.572;2022-08-03T01:54:04;98800.41;;;26.46;35.67
67738;BME280;54534;43.612;1.572;2022-08-03T01:56:31;98808.66;;;26.45;35.69
67738;BME280;54534;43.612;1.572;2022-08-03T01:58:57;98804.28;;;26.43;35.99
67738;BME280;54534;43.612;1.572;2022-08-03T02:01:25;98794.50;;;26.42;35.81
67738;BME280;54534;43.612;1.572;2022-08-03T02:03:51;98790.97;;;26.42;35.85
67738;BME280;54534;43.612;1.572;2022-08-03T02:06:19;98793.03;;;26.40;35.80
67738;BME280;54534;43.612;1.572;2022-08-03T02:08:45;98794.03;;;26.39;35.65
67738;BME280;54534;43.612;1.572;2022-08-03T02:11:12;98792.38;;;26.38;35.63
67738;BME280;54534;43.612;1.572;2022-08-03T02:13:38;98789.69;;;26.38;35.75
67738;BME280;54534;43.612;1.572;2022-08-03T02:16:05;98796.94;;;26.37;35.82
67738;BME280;54534;43.612;1.572;2022-08-03T02:18:32;98804.38;;;26.35;35.60
67738;BME280;54534;43.612;1.572;2022-08-03T02:21:00;98810.78;;;26.34;35.86
67738;BME280;54534;43.612;1.572;2022-08-03T02:23:28;98824.44;;;26.32;36.05
67738;BME280;54534;43.612;1.572;2022-08-03T02:25:57;98809.28;;;26.31;35.42
67738;BME280;54534;43.612;1.572;2022-08-03T02:28:25;98815.22;;;26.27;35.96
67738;BME280;54534;43.612;1.572;2022-08-03T02:30:53;98835.94;;;26.26;35.97
67738;BME280;54534;43.612;1.572;2022-08-03T02:33:31;98830.56;;;26.26;35.88
67738;BME280;54534;43.612;1.572;2022-08-03T02:35:59;98827.22;;;26.24;35.34
67738;BME280;54534;43.612;1.572;2022-08-03T02:38:31;98830.06;;;26.23;35.33
67738;BME280;54534;43.612;1.572;2022-08-03T02:40:57;98825.91;;;26.20;35.19
67738;BME280;54534;43.612;1.572;2022-08-03T02:43:24;98826.94;;;26.19;34.95
67738;BME280;54534;43.612;1.572;2022-08-03T02:45:52;98827.09;;;26.17;35.39
67738;BME280;54534;43.612;1.572;2022-08-03T02:48:22;98821.91;;;26.16;35.06
67738;BME280;54534;43.612;1.572;2022-08-03T02:50:54;98827.28;;;26.16;34.89
67738;BME280;54534;43.612;1.572;2022-08-03T02:53:22;98822.25;;;26.13;35.38
67738;BME280;54534;43.612;1.572;2022-08-03T02:55:49;98818.72;;;26.12;35.10
67738;BME280;54534;43.612;1.572;2022-08-03T02:58:17;98818.91;;;26.10;35.36
67738;BME280;54534;43.612;1.572;2022-08-03T03:00:44;98822.63;;;26.09;35.02
67738;BME280;54534;43.612;1.572;2022-08-03T03:03:10;98818.28;;;26.08;35.08
67738;BME280;54534;43.612;1.572;2022-08-03T03:05:36;98824.50;;;26.09;35.09
67738;BME280;54534;43.612;1.572;2022-08-03T03:08:02;98819.28;;;26.07;35.09
67738;BME280;54534;43.612;1.572;2022-08-03T03:10:27;98816.59;;;26.07;35.24
67738;BME280;54534;43.612;1.572;2022-08-03T03:12:57;98810.56;;;26.05;35.21
67738;BME280;54534;43.612;1.572;2022-08-03T03:15:25;98813.25;;;26.05;34.97
67738;BME280;54534;43.612;1.572;2022-08-03T03:17:52;98813.41;;;26.04;34.88
67738;BME280;54534;43.612;1.572;2022-08-03T03:20:20;98812.59;;;26.03;34.43
67738;BME280;54534;43.612;1.572;2022-08-03T03:22:47;98810.91;;;26.02;34.67
67738;BME280;54534;43.612;1.572;2022-08-03T03:25:13;98814.63;;;26.01;34.48
67738;BME280;54534;43.612;1.572;2022-08-03T03:27:39;98816.50;;;26.01;34.70
67738;BME280;54534;43.612;1.572;2022-08-03T03:30:06;98812.97;;;26.00;34.31
67738;BME280;54534;43.612;1.572;2022-08-03T03:32:32;98818.34;;;26.00;34.36
67738;BME280;54534;43.612;1.572;2022-08-03T03:34:58;98819.34;;;25.99;34.47
67738;BME280;54534;43.612;1.572;2022-08-03T03:37:25;98823.91;;;25.98;34.54
67738;BME280;54534;43.612;1.572;2022-08-03T03:39:52;98819.56;;;25.97;34.39
67738;BME280;54534;43.612;1.572;2022-08-03T03:42:18;98823.09;;;25.98;34.54
67738;BME280;54534;43.612;1.572;2022-08-03T03:44:44;98827.63;;;25.97;34.76
67738;BME280;54534;43.612;1.572;2022-08-03T03:47:10;98820.41;;;25.98;34.88
67738;BME280;54534;43.612;1.572;2022-08-03T03:49:35;98813.31;;;25.97;34.56
67738;BME280;54534;43.612;1.572;2022-08-03T03:52:01;98818.91;;;25.95;34.81
67738;BME280;54534;43.612;1.572;2022-08-03T03:54:38;98818.06;;;25.95;35.19
67738;BME280;54534;43.612;1.572;2022-08-03T03:57:03;98820.75;;;25.95;34.92
67738;BME280;54534;43.612;1.572;2022-08-03T03:59:29;98814.72;;;25.93;34.92
67738;BME280;54534;43.612;1.572;2022-08-03T04:01:54;98817.41;;;25.93;35.52
67738;BME280;54534;43.612;1.572;2022-08-03T04:04:20;98819.41;;;25.91;35.18
67738;BME280;54534;43.612;1.572;2022-08-03T04:07:04;98820.47;;;25.90;35.39
67738;BME280;54534;43.612;1.572;2022-08-03T04:09:48;98820.47;;;25.90;35.86
67738;BME280;54534;43.612;1.572;2022-08-03T04:12:32;98824.16;;;25.88;35.80
67738;BME280;54534;43.612;1.572;2022-08-03T04:14:59;98827.88;;;25.87;35.81
67738;BME280;54534;43.612;1.572;2022-08-03T04:17:27;98826.19;;;25.86;35.91
67738;BME280;54534;43.612;1.572;2022-08-03T04:19:53;98837.97;;;25.85;36.17
67738;BME280;54534;43.612;1.572;2022-08-03T04:22:25;98837.16;;;25.85;35.78
67738;BME280;54534;43.612;1.572;2022-08-03T04:25:02;98842.56;;;25.85;35.99
67738;BME280;54534;43.612;1.572;2022-08-03T04:27:35;98847.94;;;25.85;36.25
67738;BME280;54534;43.612;1.572;2022-08-03T04:30:03;98849.16;;;25.82;36.49
67738;BME280;54534;43.612;1.572;2022-08-03T04:32:30;98852.00;;;25.81;36.23
67738;BME280;54534;43.612;1.572;2022-08-03T04:34:56;98851.16;;;25.80;36.66
67738;BME280;54534;43.612;1.572;2022-08-03T04:37:42;98853.84;;;25.80;36.29
67738;BME280;54534;43.612;1.572;2022-08-03T04:40:13;98854.03;;;25.79;36.90
67738;BME280;54534;43.612;1.572;2022-08-03T04:42:39;98856.94;;;25.77;36.87
67738;BME280;54534;43.612;1.572;2022-08-03T04:45:06;98859.63;;;25.77;36.54
67738;BME280;54534;43.612;1.572;2022-08-03T04:47:33;98863.31;;;25.76;36.98
67738;BME280;54534;43.612;1.572;2022-08-03T04:50:02;98869.88;;;25.73;36.99
67738;BME280;54534;43.612;1.572;2022-08-03T04:52:29;98872.13;;;25.61;36.74
67738;BME280;54534;43.612;1.572;2022-08-03T04:54:55;98874.59;;;25.48;37.60
67738;BME280;54534;43.612;1.572;2022-08-03T04:57:21;98880.06;;;25.31;37.21
67738;BME280;54534;43.612;1.572;2022-08-03T04:59:46;98875.78;;;25.13;37.83
67738;BME280;54534;43.612;1.572;2022-08-03T05:02:13;98882.50;;;25.00;38.10
67738;BME280;54534;43.612;1.572;2022-08-03T05:04:40;98892.97;;;24.87;38.44
67738;BME280;54534;43.612;1.572;2022-08-03T05:07:13;98895.38;;;24.73;38.76
67738;BME280;54534;43.612;1.572;2022-08-03T05:09:39;98893.72;;;24.64;38.94
67738;BME280;54534;43.612;1.572;2022-08-03T05:12:05;98894.75;;;24.54;39.25
67738;BME280;54534;43.612;1.572;2022-08-03T05:14:32;98898.28;;;24.47;39.25
67738;BME280;54534;43.612;1.572;2022-08-03T05:16:57;98904.34;;;24.40;39.28
67738;BME280;54534;43.612;1.572;2022-08-03T05:19:23;98900.47;;;24.35;39.65
67738;BME280;54534;43.612;1.572;2022-08-03T05:21:48;98900.97;;;24.30;39.62
67738;BME280;54534;43.612;1.572;2022-08-03T05:24:13;98895.44;;;24.23;39.97
67738;BME280;54534;43.612;1.572;2022-08-03T05:26:39;98897.59;;;24.19;40.07
67738;BME280;54534;43.612;1.572;2022-08-03T05:29:04;98900.81;;;24.15;40.50
67738;BME280;54534;43.612;1.572;2022-08-03T05:31:30;98903.81;;;24.11;40.77
67738;BME280;54534;43.612;1.572;2022-08-03T05:33:56;98898.78;;;24.08;40.70
67738;BME280;54534;43.612;1.572;2022-08-03T05:36:21;98905.13;;;24.07;41.23
67738;BME280;54534;43.612;1.572;2022-08-03T05:38:47;98905.31;;;24.06;41.25
67738;BME280;54534;43.612;1.572;2022-08-03T05:41:12;98900.94;;;24.05;41.38
67738;BME280;54534;43.612;1.572;2022-08-03T05:43:38;98906.50;;;24.03;41.64
67738;BME280;54534;43.612;1.572;2022-08-03T05:46:03;98909.19;;;24.03;41.79
67738;BME280;54534;43.612;1.572;2022-08-03T05:48:29;98913.69;;;24.03;41.80
67738;BME280;54534;43.612;1.572;2022-08-03T05:50:54;98907.50;;;24.02;42.05
67738;BME280;54534;43.612;1.572;2022-08-03T05:53:19;98906.50;;;24.03;42.20
67738;BME280;54534;43.612;1.572;2022-08-03T05:55:45;98909.84;;;24.05;42.53
67738;BME280;54534;43.612;1.572;2022-08-03T05:58:10;98911.34;;;24.08;42.65
67738;BME280;54534;43.612;1.572;2022-08-03T06:00:36;98908.19;;;24.13;42.73
67738;BME280;54534;43.612;1.572;2022-08-03T06:03:01;98920.28;;;24.17;42.81
67738;BME280;54534;43.612;1.572;2022-08-03T06:05:27;98920.41;;;24.24;43.10
67738;BME280;54534;43.612;1.572;2022-08-03T06:07:53;98920.97;;;24.27;43.02
67738;BME280;54534;43.612;1.572;2022-08-03T06:10:19;98918.63;;;24.32;43.22
67738;BME280;54534;43.612;1.572;2022-08-03T06:12:44;98922.63;;;24.37;43.51
67738;BME280;54534;43.612;1.572;2022-08-03T06:15:14;98921.31;;;24.41;43.54
67738;BME280;54534;43.612;1.572;2022-08-03T06:17:47;98927.66;;;24.48;43.59
67738;BME280;54534;43.612;1.572;2022-08-03T06:20:15;98919.09;;;24.53;43.05
67738;BME280;54534;43.612;1.572;2022-08-03T06:22:41;98926.31;;;24.61;43.21
67738;BME280;54534;43.612;1.572;2022-08-03T06:25:07;98924.63;;;24.68;42.95
67738;BME280;54534;43.612;1.572;2022-08-03T06:27:33;98926.63;;;24.74;43.08
67738;BME280;54534;43.612;1.572;2022-08-03T06:29:58;98922.41;;;24.80;42.63
67738;BME280;54534;43.612;1.572;2022-08-03T06:32:23;98928.09;;;24.85;42.67
67738;BME280;54534;43.612;1.572;2022-08-03T06:34:49;98934.84;;;24.90;42.68
67738;BME280;54534;43.612;1.572;2022-08-03T06:37:15;98937.66;;;24.96;42.53
67738;BME280;54534;43.612;1.572;2022-08-03T06:39:40;98939.84;;;25.01;42.40
67738;BME280;54534;43.612;1.572;2022-08-03T06:42:06;98942.19;;;25.04;42.31
67738;BME280;54534;43.612;1.572;2022-08-03T06:44:31;98947.06;;;25.09;41.95
67738;BME280;54534;43.612;1.572;2022-08-03T06:46:57;98951.25;;;25.12;41.89
67738;BME280;54534;43.612;1.572;2022-08-03T06:49:23;98951.91;;;25.14;41.79
67738;BME280;54534;43.612;1.572;2022-08-03T06:51:48;98958.63;;;25.18;42.10
67738;BME280;54534;43.612;1.572;2022-08-03T06:54:16;98956.41;;;25.21;42.00
67738;BME280;54534;43.612;1.572;2022-08-03T06:56:42;98962.50;;;25.24;41.96
67738;BME280;54534;43.612;1.572;2022-08-03T06:59:07;98964.81;;;25.27;41.76
67738;BME280;54534;43.612;1.572;2022-08-03T07:01:32;98963.66;;;25.29;41.50
67738;BME280;54534;43.612;1.572;2022-08-03T07:03:58;98969.69;;;25.31;41.57
67738;BME280;54534;43.612;1.572;2022-08-03T07:06:24;98963.97;;;25.35;41.40
67738;BME280;54534;43.612;1.572;2022-08-03T07:08:50;98968.16;;;25.37;41.73
67738;BME280;54534;43.612;1.572;2022-08-03T07:11:15;98974.00;;;25.41;41.82
67738;BME280;54534;43.612;1.572;2022-08-03T07:13:40;98971.16;;;25.42;41.43
67738;BME280;54534;43.612;1.572;2022-08-03T07:16:06;98967.44;;;25.43;41.74
67738;BME280;54534;43.612;1.572;2022-08-03T07:18:31;98969.13;;;25.44;41.77
67738;BME280;54534;43.612;1.572;2022-08-03T07:20:57;98973.31;;;25.47;41.69
67738;BME280;54534;43.612;1.572;2022-08-03T07:23:22;98974.84;;;25.50;41.40
67738;BME280;54534;43.612;1.572;2022-08-03T07:25:48;98984.56;;;25.51;41.53
67738;BME280;54534;43.612;1.572;2022-08-03T07:28:14;98981.53;;;25.54;41.54
67738;BME280;54534;43.612;1.572;2022-08-03T07:30:40;98985.91;;;25.55;41.36
67738;BME280;54534;43.612;1.572;2022-08-03T07:33:05;98978.50;;;25.57;41.57
67738;BME280;54534;43.612;1.572;2022-08-03T07:35:30;98987.41;;;25.58;41.50
67738;BME280;54534;43.612;1.572;2022-08-03T07:37:56;98988.91;;;25.60;41.45
67738;BME280;54534;43.612;1.572;2022-08-03T07:40:21;98976.28;;;25.61;41.26
67738;BME280;54534;43.612;1.572;2022-08-03T07:42:47;98977.81;;;25.63;41.63
67738;BME280;54534;43.612;1.572;2022-08-03T07:45:12;98979.47;;;25.64;41.68
67738;BME280;54534;43.612;1.572;2022-08-03T07:47:38;98972.06;;;25.66;41.53
67738;BME280;54534;43.612;1.572;2022-08-03T07:50:04;98973.72;;;25.68;41.28
67738;BME280;54534;43.612;1.572;2022-08-03T07:52:30;98973.56;;;25.69;41.34
67738;BME280;54534;43.612;1.572;2022-08-03T07:55:15;98966.31;;;25.70;41.33
67738;BME280;54534;43.612;1.572;2022-08-03T07:57:41;98970.50;;;25.72;41.37
67738;BME280;54534;43.612;1.572;2022-08-03T08:00:15;98971.34;;;25.73;41.08
67738;BME280;54534;43.612;1.572;2022-08-03T08:02:41;98970.38;;;25.74;41.48
67738;BME280;54534;43.612;1.572;2022-08-03T08:05:07;98973.72;;;25.76;41.47
67738;BME280;54534;43.612;1.572;2022-08-03T08:07:33;98972.72;;;25.77;41.44
67738;BME280;54534;43.612;1.572;2022-08-03T08:09:58;98979.75;;;25.78;41.26
67738;BME280;54534;43.612;1.572;2022-08-03T08:12:24;98974.22;;;25.80;41.43
67738;BME280;54534;43.612;1.572;2022-08-03T08:14:49;98973.19;;;25.81;41.11
67738;BME280;54534;43.612;1.572;2022-08-03T08:17:15;98975.72;;;25.82;41.05
67738;BME280;54534;43.612;1.572;2022-08-03T08:19:40;98984.44;;;25.84;41.20
67738;BME280;54534;43.612;1.572;2022-08-03T08:22:06;98982.75;;;25.83;41.16
67738;BME280;54534;43.612;1.572;2022-08-03T08:24:31;98979.91;;;25.85;41.42
67738;BME280;54534;43.612;1.572;2022-08-03T08:26:58;98986.94;;;25.86;41.30
67738;BME280;54534;43.612;1.572;2022-08-03T08:29:25;98983.25;;;25.87;41.30
67738;BME280;54534;43.612;1.572;2022-08-03T08:31:50;98991.13;;;25.88;41.05
67738;BME280;54534;43.612;1.572;2022-08-03T08:34:15;98989.28;;;25.89;41.25
67738;BME280;54534;43.612;1.572;2022-08-03T08:36:41;98987.44;;;25.90;41.40
67738;BME280;54534;43.612;1.572;2022-08-03T08:39:06;98990.78;;;25.92;40.98
67738;BME280;54534;43.612;1.572;2022-08-03T08:41:32;98987.09;;;25.93;41.46
67738;BME280;54534;43.612;1.572;2022-08-03T08:43:59;98993.28;;;25.93;41.08
67738;BME280;54534;43.612;1.572;2022-08-03T08:46:25;98991.28;;;25.95;41.39
67738;BME280;54534;43.612;1.572;2022-08-03T08:48:52;98992.09;;;25.96;41.54
67738;BME280;54534;43.612;1.572;2022-08-03T08:51:19;98988.41;;;25.97;41.09
67738;BME280;54534;43.612;1.572;2022-08-03T08:53:48;99000.88;;;25.98;41.40
67738;BME280;54534;43.612;1.572;2022-08-03T08:56:15;98987.41;;;25.98;41.30
67738;BME280;54534;43.612;1.572;2022-08-03T08:58:50;98993.44;;;26.00;41.12
67738;BME280;54534;43.612;1.572;2022-08-03T09:01:19;98992.41;;;26.01;41.26
67738;BME280;54534;43.612;1.572;2022-08-03T09:03:46;98996.97;;;26.01;41.38
67738;BME280;54534;43.612;1.572;2022-08-03T09:06:12;98999.47;;;26.02;41.35
67738;BME280;54534;43.612;1.572;2022-08-03T09:08:37;98995.59;;;26.05;41.12
67738;BME280;54534;43.612;1.572;2022-08-03T09:11:03;99002.81;;;26.04;41.11
67738;BME280;54534;43.612;1.572;2022-08-03T09:13:28;99001.81;;;26.05;41.38
67738;BME280;54534;43.612;1.572;2022-08-03T09:18:36;99002.66;;;26.06;41.05
67738;BME280;54534;43.612;1.572;2022-08-03T09:21:31;99008.72;;;26.08;41.18
67738;BME280;54534;43.612;1.572;2022-08-03T09:23:57;99012.25;;;26.08;41.11
67738;BME280;54534;43.612;1.572;2022-08-03T09:26:26;99008.53;;;26.09;41.23
67738;BME280;54534;43.612;1.572;2022-08-03T09:31:38;99008.34;;;26.11;41.48
67738;BME280;54534;43.612;1.572;2022-08-03T09:34:05;99005.66;;;26.11;41.37
67738;BME280;54534;43.612;1.572;2022-08-03T09:36:44;99010.88;;;26.13;41.35
67738;BME280;54534;43.612;1.572;2022-08-03T09:41:43;99008.81;;;26.15;41.45
67738;BME280;54534;43.612;1.572;2022-08-03T09:44:09;99011.50;;;26.15;41.46
67738;BME280;54534;43.612;1.572;2022-08-03T09:46:51;99013.19;;;26.16;41.25
67738;BME280;54534;43.612;1.572;2022-08-03T09:49:17;99014.06;;;26.16;41.54
67738;BME280;54534;43.612;1.572;2022-08-03T09:51:43;99012.00;;;26.18;41.18
67738;BME280;54534;43.612;1.572;2022-08-03T09:54:09;99008.47;;;26.18;41.32
67738;BME280;54534;43.612;1.572;2022-08-03T09:56:45;99008.31;;;26.19;41.42
67738;BME280;54534;43.612;1.572;2022-08-03T09:59:12;99004.56;;;26.20;41.12
67738;BME280;54534;43.612;1.572;2022-08-03T10:01:39;99000.03;;;26.21;41.27
67738;BME280;54534;43.612;1.572;2022-08-03T10:04:11;98990.94;;;26.22;41.31
67738;BME280;54534;43.612;1.572;2022-08-03T10:06:38;99003.38;;;26.23;41.43
67738;BME280;54534;43.612;1.572;2022-08-03T10:09:09;98988.25;;;26.22;41.21
67738;BME280;54534;43.612;1.572;2022-08-03T10:11:36;98987.22;;;26.23;41.09
67738;BME280;54534;43.612;1.572;2022-08-03T10:14:06;98986.00;;;26.26;41.52
67738;BME280;54534;43.612;1.572;2022-08-03T10:16:34;98990.56;;;26.25;41.36
67738;BME280;54534;43.612;1.572;2022-08-03T10:19:02;98991.41;;;26.26;41.21
67738;BME280;54534;43.612;1.572;2022-08-03T10:21:34;98995.59;;;26.28;41.37
67738;BME280;54534;43.612;1.572;2022-08-03T10:24:05;98991.03;;;26.29;41.36
67738;BME280;54534;43.612;1.572;2022-08-03T10:26:33;98986.50;;;26.29;41.10
67738;BME280;54534;43.612;1.572;2022-08-03T10:29:01;98983.63;;;26.31;41.35
67738;BME280;54534;43.612;1.572;2022-08-03T10:31:34;98989.84;;;26.31;41.52
67738;BME280;54534;43.612;1.572;2022-08-03T10:34:04;98981.75;;;26.31;41.45
67738;BME280;54534;43.612;1.572;2022-08-03T10:36:32;98981.56;;;26.33;41.32
67738;BME280;54534;43.612;1.572;2022-08-03T10:38:58;98982.41;;;26.33;41.11
67738;BME280;54534;43.612;1.572;2022-08-03T10:41:25;98982.25;;;26.35;41.08
67738;BME280;54534;43.612;1.572;2022-08-03T10:43:58;98982.25;;;26.35;41.28
67738;BME280;54534;43.612;1.572;2022-08-03T10:46:27;98986.78;;;26.35;41.40
67738;BME280;54534;43.612;1.572;2022-08-03T10:48:53;98973.97;;;26.37;41.10
67738;BME280;54534;43.612;1.572;2022-08-03T10:51:21;98976.47;;;26.38;41.21
67738;BME280;54534;43.612;1.572;2022-08-03T10:53:47;98973.78;;;26.38;41.15
67738;BME280;54534;43.612;1.572;2022-08-03T10:56:37;98973.63;;;26.40;41.42
67738;BME280;54534;43.612;1.572;2022-08-03T11:02:14;98965.53;;;26.40;41.15
67738;BME280;54534;43.612;1.572;2022-08-03T11:04:40;98970.91;;;26.40;41.47
67738;BME280;54534;43.612;1.572;2022-08-03T11:09:42;98975.09;;;26.42;41.29
67738;BME280;54534;43.612;1.572;2022-08-03T11:12:40;98965.16;;;26.43;41.03
67738;BME280;54534;43.612;1.572;2022-08-03T11:15:07;98954.38;;;26.43;41.50
67738;BME280;54534;43.612;1.572;2022-08-03T11:17:34;98960.47;;;26.45;41.11
67738;BME280;54534;43.612;1.572;2022-08-03T11:19:59;98954.06;;;26.46;41.38
67738;BME280;54534;43.612;1.572;2022-08-03T11:22:48;98951.16;;;26.48;41.05
67738;BME280;54534;43.612;1.572;2022-08-03T11:25:15;98958.25;;;26.49;41.49
67738;BME280;54534;43.612;1.572;2022-08-03T11:27:40;98950.16;;;26.49;41.24
67738;BME280;54534;43.612;1.572;2022-08-03T11:32:52;98941.88;;;26.50;41.48
67738;BME280;54534;43.612;1.572;2022-08-03T11:35:22;98946.25;;;26.51;41.27
67738;BME280;54534;43.612;1.572;2022-08-03T11:40:32;98941.69;;;26.52;41.21
67738;BME280;54534;43.612;1.572;2022-08-03T11:42:58;98942.53;;;26.52;41.48
67738;BME280;54534;43.612;1.572;2022-08-03T11:45:23;98940.47;;;26.54;41.60
67738;BME280;54534;43.612;1.572;2022-08-03T11:47:53;98945.88;;;26.54;41.17
67738;BME280;54534;43.612;1.572;2022-08-03T11:50:18;98944.03;;;26.55;41.38
67738;BME280;54534;43.612;1.572;2022-08-03T11:52:44;98941.16;;;26.57;41.37
67738;BME280;54534;43.612;1.572;2022-08-03T11:55:11;98938.47;;;26.57;41.38
67738;BME280;54534;43.612;1.572;2022-08-03T11:57:36;98940.13;;;26.58;41.45
67738;BME280;54534;43.612;1.572;2022-08-03T12:00:21;98933.72;;;26.59;41.21
67738;BME280;54534;43.612;1.572;2022-08-03T12:03:01;98919.41;;;26.58;41.55
67738;BME280;54534;43.612;1.572;2022-08-03T12:08:11;98920.88;;;26.61;41.37
67738;BME280;54534;43.612;1.572;2022-08-03T12:10:38;98921.53;;;26.63;41.48
67738;BME280;54534;43.612;1.572;2022-08-03T12:13:04;98915.13;;;26.64;41.20
67738;BME280;54534;43.612;1.572;2022-08-03T12:15:32;98910.59;;;26.64;41.59
67738;BME280;54534;43.612;1.572;2022-08-03T12:18:00;98914.09;;;26.65;41.27
67738;BME280;54534;43.612;1.572;2022-08-03T12:20:29;98912.06;;;26.67;41.40
67738;BME280;54534;43.612;1.572;2022-08-03T12:23:01;98917.47;;;26.67;41.37
67738;BME280;54534;43.612;1.572;2022-08-03T12:25:27;98913.72;;;26.68;41.50
67738;BME280;54534;43.612;1.572;2022-08-03T12:28:08;98917.06;;;26.70;41.68
67738;BME280;54534;43.612;1.572;2022-08-03T12:30:35;98912.72;;;26.69;41.67
67738;BME280;54534;43.612;1.572;2022-08-03T12:35:41;98908.16;;;26.70;41.39
67738;BME280;54534;43.612;1.572;2022-08-03T12:38:07;98901.56;;;26.72;41.76
67738;BME280;54534;43.612;1.572;2022-08-03T12:40:34;98905.06;;;26.73;41.50
67738;BME280;54534;43.612;1.572;2022-08-03T12:42:59;98910.31;;;26.74;41.31
67738;BME280;54534;43.612;1.572;2022-08-03T12:45:27;98913.00;;;26.74;41.80
67738;BME280;54534;43.612;1.572;2022-08-03T12:47:58;98910.09;;;26.76;41.48
67738;BME280;54534;43.612;1.572;2022-08-03T12:50:34;98907.41;;;26.76;41.63
67738;BME280;54534;43.612;1.572;2022-08-03T12:53:03;98901.00;;;26.77;41.74
67738;BME280;54534;43.612;1.572;2022-08-03T12:55:29;98906.41;;;26.77;41.47
67738;BME280;54534;43.612;1.572;2022-08-03T12:57:59;98908.06;;;26.78;41.57
67738;BME280;54534;43.612;1.572;2022-08-03T13:00:25;98906.19;;;26.79;41.68
67738;BME280;54534;43.612;1.572;2022-08-03T13:03:07;98895.25;;;26.80;41.63
67738;BME280;54534;43.612;1.572;2022-08-03T13:05:44;98900.63;;;26.80;41.39
67738;BME280;54534;43.612;1.572;2022-08-03T13:08:22;98899.59;;;26.81;41.67
67738;BME280;54534;43.612;1.572;2022-08-03T13:10:48;98901.28;;;26.82;41.58
67738;BME280;54534;43.612;1.572;2022-08-03T13:13:13;98895.88;;;26.82;41.70
67738;BME280;54534;43.612;1.572;2022-08-03T13:15:39;98888.63;;;26.83;41.57
67738;BME280;54534;43.612;1.572;2022-08-03T13:18:05;98879.50;;;26.84;41.90
67738;BME280;54534;43.612;1.572;2022-08-03T13:20:30;98873.09;;;26.85;41.63
67738;BME280;54534;43.612;1.572;2022-08-03T13:22:56;98881.19;;;26.85;41.63
67738;BME280;54534;43.612;1.572;2022-08-03T13:25:21;98883.69;;;26.86;41.73
67738;BME280;54534;43.612;1.572;2022-08-03T13:27:47;98877.47;;;26.86;41.84
67738;BME280;54534;43.612;1.572;2022-08-03T13:30:14;98862.94;;;26.87;41.80
67738;BME280;54534;43.612;1.572;2022-08-03T13:32:39;98873.56;;;26.88;41.89
67738;BME280;54534;43.612;1.572;2022-08-03T13:35:06;98864.44;;;26.90;41.78
67738;BME280;54534;43.612;1.572;2022-08-03T13:37:31;98865.28;;;26.90;41.73